sensor_id;sensor_type;location;lat;lon;timestamp;temperature;humidity
9215;DHT22;4642;51.364;6.788;2023-06-10T00:00:46;19.80;36.20
9215;DHT22;4642;51.364;6.788;2023-06-10T00:03:11;19.70;1.00
9215;DHT22;4642;51.364;6.788;2023-06-10T00:05:38;19.70;99.90
9215;DHT22;4642;51.364;6.788;2023-06-10T00:08:05;19.60;55.40
9215;DHT22;4642;51.364;6.788;2023-06-10T00:10:37;19.60;1.00
9215;DHT22;4642;51.364;6.788;2023-06-10T00:13:04;19.60;99.90
9215;DHT22;4642;51.364;6.788;2023-06-10T00:15:30;19.50;86.50
9215;DHT22;4642;51.364;6.788;2023-06-10T00:17:56;19.50;1.00
9215;DHT22;4642;51.364;6.788;2023-06-10T00:20:22;19.40;43.70
9215;DHT22;4642;51.364;6.788;2023-06-10T00:22:49;19.40;99.90
9215;DHT22;4642;51.364;6.788;2023-06-10T00:25:15;19.30;1.00
9215;DHT22;4642;51.364;6.788;2023-06-10T00:27:41;19.30;53.40
9215;DHT22;4642;51.364;6.788;2023-06-10T00:30:07;19.30;99.90
9215;DHT22;4642;51.364;6.788;2023-06-10T00:32:33;19.20;99.90
9215;DHT22;4642;51.364;6.788;2023-06-10T00:34:59;19.20;99.90
9215;DHT22;4642;51.364;6.788;2023-06-10T00:37:25;19.20;99.90
9215;DHT22;4642;51.364;6.788;2023-06-10T00:39:50;19.10;99.90
9215;DHT22;4642;51.364;6.788;2023-06-10T00:42:16;19.00;1.00
9215;DHT22;4642;51.364;6.788;2023-06-10T00:44:42;19.00;32.30
9215;DHT22;4642;51.364;6.788;2023-06-10T00:47:07;19.00;99.90
9215;DHT22;4642;51.364;6.788;2023-06-10T00:49:33;18.80;99.90
9215;DHT22;4642;51.364;6.788;2023-06-10T00:52:00;18.80;99.90
9215;DHT22;4642;51.364;6.788;2023-06-10T00:54:25;18.80;99.90
9215;DHT22;4642;51.364;6.788;2023-06-10T00:56:51;18.80;99.90
9215;DHT22;4642;51.364;6.788;2023-06-10T00:59:18;18.70;99.90
9215;DHT22;4642;51.364;6.788;2023-06-10T01:01:45;18.70;99.90
9215;DHT22;4642;51.364;6.788;2023-06-10T01:04:12;18.60;99.90
9215;DHT22;4642;51.364;6.788;2023-06-10T01:06:44;18.60;99.90
9215;DHT22;4642;51.364;6.788;2023-06-10T01:09:14;18.60;99.90
9215;DHT22;4642;51.364;6.788;2023-06-10T01:11:47;18.50;99.90
9215;DHT22;4642;51.364;6.788;2023-06-10T01:14:14;18.50;99.90
9215;DHT22;4642;51.364;6.788;2023-06-10T01:16:42;18.50;99.90
9215;DHT22;4642;51.364;6.788;2023-06-10T01:19:11;18.40;99.90
9215;DHT22;4642;51.364;6.788;2023-06-10T01:21:38;18.30;99.90
9215;DHT22;4642;51.364;6.788;2023-06-10T01:24:05;18.30;99.90
9215;DHT22;4642;51.364;6.788;2023-06-10T01:26:34;18.30;99.90
9215;DHT22;4642;51.364;6.788;2023-06-10T01:29:07;18.20;99.90
9215;DHT22;4642;51.364;6.788;2023-06-10T01:32:11;18.20;99.90
9215;DHT22;4642;51.364;6.788;2023-06-10T01:34:41;18.10;99.90
9215;DHT22;4642;51.364;6.788;2023-06-10T01:37:08;18.10;99.90
9215;DHT22;4642;51.364;6.788;2023-06-10T01:39:34;18.10;99.90
9215;DHT22;4642;51.364;6.788;2023-06-10T01:42:01;18.00;99.90
9215;DHT22;4642;51.364;6.788;2023-06-10T01:44:27;18.00;99.90
9215;DHT22;4642;51.364;6.788;2023-06-10T01:46:53;18.00;99.90
9215;DHT22;4642;51.364;6.788;2023-06-10T01:49:18;18.00;99.90
9215;DHT22;4642;51.364;6.788;2023-06-10T01:51:44;18.00;99.90
9215;DHT22;4642;51.364;6.788;2023-06-10T01:54:10;18.00;99.90
9215;DHT22;4642;51.364;6.788;2023-06-10T01:56:35;18.00;99.90
9215;DHT22;4642;51.364;6.788;2023-06-10T01:59:01;18.00;99.90
9215;DHT22;4642;51.364;6.788;2023-06-10T02:01:26;18.00;99.90
9215;DHT22;4642;51.364;6.788;2023-06-10T02:03:52;18.00;99.90
9215;DHT22;4642;51.364;6.788;2023-06-10T02:06:18;18.00;99.90
9215;DHT22;4642;51.364;6.788;2023-06-10T02:08:43;17.90;99.90
9215;DHT22;4642;51.364;6.788;2023-06-10T02:11:09;17.90;99.90
9215;DHT22;4642;51.364;6.788;2023-06-10T02:13:35;17.90;99.90
9215;DHT22;4642;51.364;6.788;2023-06-10T02:16:01;17.90;99.90
9215;DHT22;4642;51.364;6.788;2023-06-10T02:18:27;17.80;99.90
9215;DHT22;4642;51.364;6.788;2023-06-10T02:20:53;17.80;99.90
9215;DHT22;4642;51.364;6.788;2023-06-10T02:23:19;17.80;99.90
9215;DHT22;4642;51.364;6.788;2023-06-10T02:25:44;17.80;99.90
9215;DHT22;4642;51.364;6.788;2023-06-10T02:28:10;17.80;99.90
9215;DHT22;4642;51.364;6.788;2023-06-10T02:30:38;17.70;99.90
9215;DHT22;4642;51.364;6.788;2023-06-10T02:33:04;17.80;99.90
9215;DHT22;4642;51.364;6.788;2023-06-10T02:35:30;17.80;99.90
9215;DHT22;4642;51.364;6.788;2023-06-10T02:37:56;17.80;99.90
9215;DHT22;4642;51.364;6.788;2023-06-10T02:40:21;17.70;99.90
9215;DHT22;4642;51.364;6.788;2023-06-10T02:42:47;17.70;99.90
9215;DHT22;4642;51.364;6.788;2023-06-10T02:45:12;17.70;99.90
9215;DHT22;4642;51.364;6.788;2023-06-10T02:47:38;17.70;99.90
9215;DHT22;4642;51.364;6.788;2023-06-10T02:50:05;17.70;99.90
9215;DHT22;4642;51.364;6.788;2023-06-10T02:52:31;17.70;99.90
9215;DHT22;4642;51.364;6.788;2023-06-10T02:54:56;17.80;1.00
9215;DHT22;4642;51.364;6.788;2023-06-10T02:57:22;17.70;1.00
9215;DHT22;4642;51.364;6.788;2023-06-10T02:59:47;17.70;1.00
9215;DHT22;4642;51.364;6.788;2023-06-10T03:02:13;17.70;1.00
9215;DHT22;4642;51.364;6.788;2023-06-10T03:04:39;17.60;1.00
9215;DHT22;4642;51.364;6.788;2023-06-10T03:07:04;17.60;1.00
9215;DHT22;4642;51.364;6.788;2023-06-10T03:09:32;17.60;1.00
9215;DHT22;4642;51.364;6.788;2023-06-10T03:11:58;17.60;1.00
9215;DHT22;4642;51.364;6.788;2023-06-10T03:14:25;17.50;1.00
9215;DHT22;4642;51.364;6.788;2023-06-10T03:16:50;17.50;1.00
9215;DHT22;4642;51.364;6.788;2023-06-10T03:19:16;17.50;1.00
9215;DHT22;4642;51.364;6.788;2023-06-10T03:21:44;17.50;1.00
9215;DHT22;4642;51.364;6.788;2023-06-10T03:24:10;17.40;1.00
9215;DHT22;4642;51.364;6.788;2023-06-10T03:26:36;17.40;1.00
9215;DHT22;4642;51.364;6.788;2023-06-10T03:29:02;17.40;1.00
9215;DHT22;4642;51.364;6.788;2023-06-10T03:31:27;17.30;1.00
9215;DHT22;4642;51.364;6.788;2023-06-10T03:33:53;17.30;1.00
9215;DHT22;4642;51.364;6.788;2023-06-10T03:36:18;17.30;1.00
9215;DHT22;4642;51.364;6.788;2023-06-10T03:38:44;17.30;1.00
9215;DHT22;4642;51.364;6.788;2023-06-10T03:41:09;17.20;1.00
9215;DHT22;4642;51.364;6.788;2023-06-10T03:43:35;17.30;1.00
9215;DHT22;4642;51.364;6.788;2023-06-10T03:46:00;17.20;1.00
9215;DHT22;4642;51.364;6.788;2023-06-10T03:48:26;17.20;1.00
9215;DHT22;4642;51.364;6.788;2023-06-10T03:50:52;17.20;1.00
9215;DHT22;4642;51.364;6.788;2023-06-10T03:53:18;17.10;1.00
9215;DHT22;4642;51.364;6.788;2023-06-10T03:55:43;17.10;1.00
9215;DHT22;4642;51.364;6.788;2023-06-10T03:58:10;17.30;1.00
9215;DHT22;4642;51.364;6.788;2023-06-10T04:00:38;17.10;1.00
9215;DHT22;4642;51.364;6.788;2023-06-10T04:03:07;17.10;1.00
9215;DHT22;4642;51.364;6.788;2023-06-10T04:05:34;17.00;1.00
9215;DHT22;4642;51.364;6.788;2023-06-10T04:08:00;17.20;1.00
9215;DHT22;4642;51.364;6.788;2023-06-10T04:10:27;17.00;1.00
9215;DHT22;4642;51.364;6.788;2023-06-10T04:12:52;17.00;1.00
9215;DHT22;4642;51.364;6.788;2023-06-10T04:15:18;17.00;1.00
9215;DHT22;4642;51.364;6.788;2023-06-10T04:17:43;17.00;1.00
9215;DHT22;4642;51.364;6.788;2023-06-10T04:20:09;16.90;1.00
9215;DHT22;4642;51.364;6.788;2023-06-10T04:22:35;17.00;1.00
9215;DHT22;4642;51.364;6.788;2023-06-10T04:25:01;17.00;1.00
9215;DHT22;4642;51.364;6.788;2023-06-10T04:27:27;16.90;1.00
9215;DHT22;4642;51.364;6.788;2023-06-10T04:29:53;17.00;1.00
9215;DHT22;4642;51.364;6.788;2023-06-10T04:32:18;17.00;1.00
9215;DHT22;4642;51.364;6.788;2023-06-10T04:34:44;17.00;1.00
9215;DHT22;4642;51.364;6.788;2023-06-10T04:37:09;17.00;1.00
9215;DHT22;4642;51.364;6.788;2023-06-10T04:39:35;16.80;1.00
9215;DHT22;4642;51.364;6.788;2023-06-10T04:42:01;17.00;1.00
9215;DHT22;4642;51.364;6.788;2023-06-10T04:44:27;17.00;1.00
9215;DHT22;4642;51.364;6.788;2023-06-10T04:46:52;16.90;1.00
9215;DHT22;4642;51.364;6.788;2023-06-10T04:49:18;17.00;1.00
9215;DHT22;4642;51.364;6.788;2023-06-10T04:51:43;17.00;1.00
9215;DHT22;4642;51.364;6.788;2023-06-10T04:54:09;17.00;1.00
9215;DHT22;4642;51.364;6.788;2023-06-10T04:56:34;17.00;1.00
9215;DHT22;4642;51.364;6.788;2023-06-10T04:59:00;17.10;1.00
9215;DHT22;4642;51.364;6.788;2023-06-10T05:01:26;17.10;1.00
9215;DHT22;4642;51.364;6.788;2023-06-10T05:03:51;17.10;1.00
9215;DHT22;4642;51.364;6.788;2023-06-10T05:06:17;17.10;1.00
9215;DHT22;4642;51.364;6.788;2023-06-10T05:08:42;17.10;1.00
9215;DHT22;4642;51.364;6.788;2023-06-10T05:11:08;17.20;1.00
9215;DHT22;4642;51.364;6.788;2023-06-10T05:13:34;17.20;1.00
9215;DHT22;4642;51.364;6.788;2023-06-10T05:15:59;17.30;1.00
9215;DHT22;4642;51.364;6.788;2023-06-10T05:18:25;17.30;1.00
9215;DHT22;4642;51.364;6.788;2023-06-10T05:20:50;17.50;1.00
9215;DHT22;4642;51.364;6.788;2023-06-10T05:23:16;17.40;1.00
9215;DHT22;4642;51.364;6.788;2023-06-10T05:25:42;17.40;1.00
9215;DHT22;4642;51.364;6.788;2023-06-10T05:28:08;17.50;1.00
9215;DHT22;4642;51.364;6.788;2023-06-10T05:30:37;17.50;1.00
9215;DHT22;4642;51.364;6.788;2023-06-10T05:33:04;17.60;1.00
9215;DHT22;4642;51.364;6.788;2023-06-10T05:35:30;17.70;1.00
9215;DHT22;4642;51.364;6.788;2023-06-10T05:37:55;17.70;1.00
9215;DHT22;4642;51.364;6.788;2023-06-10T05:40:21;17.70;1.00
9215;DHT22;4642;51.364;6.788;2023-06-10T05:42:46;17.80;1.00
9215;DHT22;4642;51.364;6.788;2023-06-10T05:45:12;17.80;1.00
9215;DHT22;4642;51.364;6.788;2023-06-10T05:47:38;17.90;1.00
9215;DHT22;4642;51.364;6.788;2023-06-10T05:50:04;18.00;1.00
9215;DHT22;4642;51.364;6.788;2023-06-10T05:52:33;18.00;1.00
9215;DHT22;4642;51.364;6.788;2023-06-10T05:54:59;18.10;1.00
9215;DHT22;4642;51.364;6.788;2023-06-10T05:57:25;18.10;1.00
9215;DHT22;4642;51.364;6.788;2023-06-10T05:59:51;18.20;1.00
9215;DHT22;4642;51.364;6.788;2023-06-10T06:02:17;18.20;1.00
9215;DHT22;4642;51.364;6.788;2023-06-10T06:04:42;18.30;1.00
9215;DHT22;4642;51.364;6.788;2023-06-10T06:07:08;18.30;1.00
9215;DHT22;4642;51.364;6.788;2023-06-10T06:09:34;18.50;1.00
9215;DHT22;4642;51.364;6.788;2023-06-10T06:11:59;18.50;1.00
9215;DHT22;4642;51.364;6.788;2023-06-10T06:14:25;18.60;1.00
9215;DHT22;4642;51.364;6.788;2023-06-10T06:16:50;18.80;1.00
9215;DHT22;4642;51.364;6.788;2023-06-10T06:19:16;18.90;1.00
9215;DHT22;4642;51.364;6.788;2023-06-10T06:21:42;18.90;1.00
9215;DHT22;4642;51.364;6.788;2023-06-10T06:24:07;18.90;1.00
9215;DHT22;4642;51.364;6.788;2023-06-10T06:26:33;19.00;1.00
9215;DHT22;4642;51.364;6.788;2023-06-10T06:28:58;19.00;1.00
9215;DHT22;4642;51.364;6.788;2023-06-10T06:31:24;19.10;1.00
9215;DHT22;4642;51.364;6.788;2023-06-10T06:33:49;19.20;1.00
9215;DHT22;4642;51.364;6.788;2023-06-10T06:36:15;19.20;1.00
9215;DHT22;4642;51.364;6.788;2023-06-10T06:38:41;19.30;1.00
9215;DHT22;4642;51.364;6.788;2023-06-10T06:41:06;19.40;99.90
9215;DHT22;4642;51.364;6.788;2023-06-10T06:43:32;19.50;1.00
9215;DHT22;4642;51.364;6.788;2023-06-10T06:45:58;19.60;1.00
9215;DHT22;4642;51.364;6.788;2023-06-10T06:48:23;19.60;1.00
9215;DHT22;4642;51.364;6.788;2023-06-10T06:50:49;19.60;1.00
9215;DHT22;4642;51.364;6.788;2023-06-10T06:53:15;19.70;1.00
9215;DHT22;4642;51.364;6.788;2023-06-10T06:55:40;19.80;1.00
9215;DHT22;4642;51.364;6.788;2023-06-10T06:58:06;19.90;1.00
9215;DHT22;4642;51.364;6.788;2023-06-10T07:00:32;19.90;99.90
9215;DHT22;4642;51.364;6.788;2023-06-10T07:02:58;20.00;99.90
9215;DHT22;4642;51.364;6.788;2023-06-10T07:05:24;20.10;99.90
9215;DHT22;4642;51.364;6.788;2023-06-10T07:07:53;20.10;99.90
9215;DHT22;4642;51.364;6.788;2023-06-10T07:10:24;20.20;99.90
9215;DHT22;4642;51.364;6.788;2023-06-10T07:12:50;20.30;99.90
9215;DHT22;4642;51.364;6.788;2023-06-10T07:15:16;20.30;99.90
9215;DHT22;4642;51.364;6.788;2023-06-10T07:17:42;20.40;99.90
9215;DHT22;4642;51.364;6.788;2023-06-10T07:20:08;20.50;99.90
9215;DHT22;4642;51.364;6.788;2023-06-10T07:22:33;20.60;99.90
9215;DHT22;4642;51.364;6.788;2023-06-10T07:24:59;20.70;99.90
9215;DHT22;4642;51.364;6.788;2023-06-10T07:27:25;20.90;99.90
9215;DHT22;4642;51.364;6.788;2023-06-10T07:29:51;20.90;99.90
9215;DHT22;4642;51.364;6.788;2023-06-10T07:32:16;21.00;99.90
9215;DHT22;4642;51.364;6.788;2023-06-10T07:34:42;21.10;99.90
9215;DHT22;4642;51.364;6.788;2023-06-10T07:37:08;21.20;99.90
9215;DHT22;4642;51.364;6.788;2023-06-10T07:39:34;21.30;99.90
9215;DHT22;4642;51.364;6.788;2023-06-10T07:42:00;21.40;99.90
9215;DHT22;4642;51.364;6.788;2023-06-10T07:44:25;21.50;99.90
9215;DHT22;4642;51.364;6.788;2023-06-10T07:46:51;21.50;99.90
9215;DHT22;4642;51.364;6.788;2023-06-10T07:49:16;21.60;78.30
9215;DHT22;4642;51.364;6.788;2023-06-10T07:51:42;21.70;99.90
9215;DHT22;4642;51.364;6.788;2023-06-10T07:54:08;21.80;51.50
9215;DHT22;4642;51.364;6.788;2023-06-10T07:56:33;21.90;45.80
9215;DHT22;4642;51.364;6.788;2023-06-10T07:58:59;21.90;99.90
9215;DHT22;4642;51.364;6.788;2023-06-10T08:01:24;22.00;95.50
9215;DHT22;4642;51.364;6.788;2023-06-10T08:03:50;22.20;1.00
9215;DHT22;4642;51.364;6.788;2023-06-10T08:06:15;22.20;1.00
9215;DHT22;4642;51.364;6.788;2023-06-10T08:08:42;22.30;1.00
9215;DHT22;4642;51.364;6.788;2023-06-10T08:11:12;22.40;1.00
9215;DHT22;4642;51.364;6.788;2023-06-10T08:13:38;22.50;1.00
9215;DHT22;4642;51.364;6.788;2023-06-10T08:16:04;22.50;1.00
9215;DHT22;4642;51.364;6.788;2023-06-10T08:18:29;22.70;1.00
9215;DHT22;4642;51.364;6.788;2023-06-10T08:20:55;22.90;1.00
9215;DHT22;4642;51.364;6.788;2023-06-10T08:23:21;22.80;1.00
9215;DHT22;4642;51.364;6.788;2023-06-10T08:25:46;22.90;1.00
9215;DHT22;4642;51.364;6.788;2023-06-10T08:28:12;23.00;1.00
9215;DHT22;4642;51.364;6.788;2023-06-10T08:30:37;23.20;1.00
9215;DHT22;4642;51.364;6.788;2023-06-10T08:33:03;23.20;1.00
9215;DHT22;4642;51.364;6.788;2023-06-10T08:35:29;23.30;1.00
9215;DHT22;4642;51.364;6.788;2023-06-10T08:37:54;23.40;1.00
9215;DHT22;4642;51.364;6.788;2023-06-10T08:40:20;23.40;1.00
9215;DHT22;4642;51.364;6.788;2023-06-10T08:42:49;23.50;1.00
9215;DHT22;4642;51.364;6.788;2023-06-10T08:45:18;23.60;1.00
9215;DHT22;4642;51.364;6.788;2023-06-10T08:47:45;23.70;1.00
9215;DHT22;4642;51.364;6.788;2023-06-10T08:50:14;23.70;1.00
9215;DHT22;4642;51.364;6.788;2023-06-10T08:52:43;23.80;1.00
9215;DHT22;4642;51.364;6.788;2023-06-10T08:55:18;23.90;99.90
9215;DHT22;4642;51.364;6.788;2023-06-10T08:57:45;24.00;1.00
9215;DHT22;4642;51.364;6.788;2023-06-10T09:00:13;24.10;1.00
9215;DHT22;4642;51.364;6.788;2023-06-10T09:02:39;24.20;1.00
9215;DHT22;4642;51.364;6.788;2023-06-10T09:05:05;24.30;99.90
9215;DHT22;4642;51.364;6.788;2023-06-10T09:07:32;24.30;1.00
9215;DHT22;4642;51.364;6.788;2023-06-10T09:10:01;24.40;1.00
9215;DHT22;4642;51.364;6.788;2023-06-10T09:12:29;24.50;1.00
9215;DHT22;4642;51.364;6.788;2023-06-10T09:14:55;24.60;99.90
9215;DHT22;4642;51.364;6.788;2023-06-10T09:17:21;24.60;1.00
9215;DHT22;4642;51.364;6.788;2023-06-10T09:19:47;24.70;99.90
9215;DHT22;4642;51.364;6.788;2023-06-10T09:22:13;24.70;1.00
9215;DHT22;4642;51.364;6.788;2023-06-10T09:24:39;24.90;1.00
9215;DHT22;4642;51.364;6.788;2023-06-10T09:27:06;24.90;99.90
9215;DHT22;4642;51.364;6.788;2023-06-10T09:32:13;25.10;99.90
9215;DHT22;4642;51.364;6.788;2023-06-10T09:34:40;25.20;99.90
9215;DHT22;4642;51.364;6.788;2023-06-10T09:37:06;25.30;99.90
9215;DHT22;4642;51.364;6.788;2023-06-10T09:39:33;25.40;99.90
9215;DHT22;4642;51.364;6.788;2023-06-10T09:41:59;25.40;99.90
9215;DHT22;4642;51.364;6.788;2023-06-10T09:44:24;25.40;99.90
9215;DHT22;4642;51.364;6.788;2023-06-10T09:46:50;25.70;99.90
9215;DHT22;4642;51.364;6.788;2023-06-10T09:49:19;25.80;99.90
9215;DHT22;4642;51.364;6.788;2023-06-10T09:51:51;25.70;99.90
9215;DHT22;4642;51.364;6.788;2023-06-10T09:54:18;25.90;99.90
9215;DHT22;4642;51.364;6.788;2023-06-10T09:56:49;26.00;99.90
9215;DHT22;4642;51.364;6.788;2023-06-10T09:59:27;26.10;1.00
9215;DHT22;4642;51.364;6.788;2023-06-10T10:01:56;26.10;1.00
9215;DHT22;4642;51.364;6.788;2023-06-10T10:04:25;26.30;1.00
9215;DHT22;4642;51.364;6.788;2023-06-10T10:06:51;26.20;1.00
9215;DHT22;4642;51.364;6.788;2023-06-10T10:09:16;26.40;1.00
9215;DHT22;4642;51.364;6.788;2023-06-10T10:11:43;26.60;1.00
9215;DHT22;4642;51.364;6.788;2023-06-10T10:14:09;26.60;1.00
9215;DHT22;4642;51.364;6.788;2023-06-10T10:16:41;26.70;99.90
9215;DHT22;4642;51.364;6.788;2023-06-10T10:19:20;26.70;1.00
9215;DHT22;4642;51.364;6.788;2023-06-10T10:21:53;26.80;1.00
9215;DHT22;4642;51.364;6.788;2023-06-10T10:24:21;26.80;1.00
9215;DHT22;4642;51.364;6.788;2023-06-10T10:26:50;27.00;1.00
9215;DHT22;4642;51.364;6.788;2023-06-10T10:29:28;26.90;1.00
9215;DHT22;4642;51.364;6.788;2023-06-10T10:31:56;27.00;1.00
9215;DHT22;4642;51.364;6.788;2023-06-10T10:34:51;27.10;99.90
9215;DHT22;4642;51.364;6.788;2023-06-10T10:37:20;27.20;1.00
9215;DHT22;4642;51.364;6.788;2023-06-10T10:39:47;27.40;4.90
9215;DHT22;4642;51.364;6.788;2023-06-10T10:42:13;27.40;60.90
9215;DHT22;4642;51.364;6.788;2023-06-10T10:44:40;27.40;1.00
9215;DHT22;4642;51.364;6.788;2023-06-10T10:47:08;27.50;1.00
9215;DHT22;4642;51.364;6.788;2023-06-10T10:49:35;27.50;1.00
9215;DHT22;4642;51.364;6.788;2023-06-10T10:52:03;27.60;1.00
9215;DHT22;4642;51.364;6.788;2023-06-10T10:54:33;27.70;99.90
9215;DHT22;4642;51.364;6.788;2023-06-10T10:57:23;27.70;1.00
9215;DHT22;4642;51.364;6.788;2023-06-10T11:02:16;27.80;29.20
9215;DHT22;4642;51.364;6.788;2023-06-10T11:04:47;27.80;1.00
9215;DHT22;4642;51.364;6.788;2023-06-10T11:07:14;27.90;1.00
9215;DHT22;4642;51.364;6.788;2023-06-10T11:10:08;28.00;99.90
9215;DHT22;4642;51.364;6.788;2023-06-10T11:15:12;28.20;78.10
9215;DHT22;4642;51.364;6.788;2023-06-10T11:17:59;28.20;99.90
9215;DHT22;4642;51.364;6.788;2023-06-10T11:23:07;28.40;1.00
9215;DHT22;4642;51.364;6.788;2023-06-10T11:25:39;28.40;99.90
9215;DHT22;4642;51.364;6.788;2023-06-10T11:28:18;28.40;99.90
9215;DHT22;4642;51.364;6.788;2023-06-10T11:30:43;28.50;99.90
9215;DHT22;4642;51.364;6.788;2023-06-10T11:33:09;28.50;99.90
9215;DHT22;4642;51.364;6.788;2023-06-10T11:35:39;28.50;1.00
9215;DHT22;4642;51.364;6.788;2023-06-10T11:38:05;28.40;99.90
9215;DHT22;4642;51.364;6.788;2023-06-10T11:40:30;28.40;99.90
9215;DHT22;4642;51.364;6.788;2023-06-10T11:42:56;28.60;99.90
9215;DHT22;4642;51.364;6.788;2023-06-10T11:45:23;28.60;1.00
9215;DHT22;4642;51.364;6.788;2023-06-10T11:47:58;28.60;99.90
9215;DHT22;4642;51.364;6.788;2023-06-10T11:50:33;28.80;1.00
9215;DHT22;4642;51.364;6.788;2023-06-10T11:52:59;28.80;1.00
9215;DHT22;4642;51.364;6.788;2023-06-10T11:55:48;28.80;1.00
9215;DHT22;4642;51.364;6.788;2023-06-10T11:58:20;28.90;1.00
9215;DHT22;4642;51.364;6.788;2023-06-10T12:00:51;28.90;99.90
9215;DHT22;4642;51.364;6.788;2023-06-10T12:03:18;29.00;1.00
9215;DHT22;4642;51.364;6.788;2023-06-10T12:06:01;29.00;99.90
9215;DHT22;4642;51.364;6.788;2023-06-10T12:08:28;29.10;99.90
9215;DHT22;4642;51.364;6.788;2023-06-10T12:10:54;29.00;99.90
9215;DHT22;4642;51.364;6.788;2023-06-10T12:13:20;29.10;99.90
9215;DHT22;4642;51.364;6.788;2023-06-10T12:15:46;29.20;99.90
9215;DHT22;4642;51.364;6.788;2023-06-10T12:18:19;29.30;99.90
9215;DHT22;4642;51.364;6.788;2023-06-10T12:20:45;29.30;1.00
9215;DHT22;4642;51.364;6.788;2023-06-10T12:23:12;29.30;99.90
9215;DHT22;4642;51.364;6.788;2023-06-10T12:25:38;29.40;1.00
9215;DHT22;4642;51.364;6.788;2023-06-10T12:28:04;29.50;1.00
9215;DHT22;4642;51.364;6.788;2023-06-10T12:30:31;29.40;99.90
9215;DHT22;4642;51.364;6.788;2023-06-10T12:32:58;29.50;1.00
9215;DHT22;4642;51.364;6.788;2023-06-10T12:35:26;29.60;99.90
9215;DHT22;4642;51.364;6.788;2023-06-10T12:38:02;29.50;99.90
9215;DHT22;4642;51.364;6.788;2023-06-10T12:40:33;29.50;99.90
9215;DHT22;4642;51.364;6.788;2023-06-10T12:42:59;29.60;99.90
9215;DHT22;4642;51.364;6.788;2023-06-10T12:45:34;29.70;99.90
9215;DHT22;4642;51.364;6.788;2023-06-10T12:48:18;29.80;1.00
9215;DHT22;4642;51.364;6.788;2023-06-10T12:50:46;29.80;99.90
9215;DHT22;4642;51.364;6.788;2023-06-10T12:53:12;29.80;48.10
9215;DHT22;4642;51.364;6.788;2023-06-10T12:55:38;29.80;99.90
9215;DHT22;4642;51.364;6.788;2023-06-10T12:58:03;29.80;1.00
9215;DHT22;4642;51.364;6.788;2023-06-10T13:00:29;29.80;1.00
9215;DHT22;4642;51.364;6.788;2023-06-10T13:02:56;29.90;1.00
9215;DHT22;4642;51.364;6.788;2023-06-10T13:05:22;29.80;1.00
9215;DHT22;4642;51.364;6.788;2023-06-10T13:07:48;29.80;99.90
9215;DHT22;4642;51.364;6.788;2023-06-10T13:10:15;29.80;99.90
9215;DHT22;4642;51.364;6.788;2023-06-10T13:12:42;29.90;99.90
9215;DHT22;4642;51.364;6.788;2023-06-10T13:15:08;30.00;99.90
9215;DHT22;4642;51.364;6.788;2023-06-10T13:17:33;30.00;99.90
9215;DHT22;4642;51.364;6.788;2023-06-10T13:20:00;30.00;99.90
9215;DHT22;4642;51.364;6.788;2023-06-10T13:22:26;30.20;99.90
9215;DHT22;4642;51.364;6.788;2023-06-10T13:24:52;30.20;99.90
9215;DHT22;4642;51.364;6.788;2023-06-10T13:27:17;30.20;99.90
9215;DHT22;4642;51.364;6.788;2023-06-10T13:29:43;30.30;99.90
9215;DHT22;4642;51.364;6.788;2023-06-10T13:32:09;30.40;1.00
9215;DHT22;4642;51.364;6.788;2023-06-10T13:34:35;30.40;99.90
9215;DHT22;4642;51.364;6.788;2023-06-10T13:37:01;30.50;99.90
9215;DHT22;4642;51.364;6.788;2023-06-10T13:39:26;30.50;99.90
9215;DHT22;4642;51.364;6.788;2023-06-10T13:41:52;30.40;99.90
9215;DHT22;4642;51.364;6.788;2023-06-10T13:44:18;30.40;99.90
9215;DHT22;4642;51.364;6.788;2023-06-10T13:46:43;30.60;99.90
9215;DHT22;4642;51.364;6.788;2023-06-10T13:49:09;30.50;99.90
9215;DHT22;4642;51.364;6.788;2023-06-10T13:51:34;30.50;77.10
9215;DHT22;4642;51.364;6.788;2023-06-10T13:54:00;30.50;99.90
9215;DHT22;4642;51.364;6.788;2023-06-10T13:56:26;30.60;99.90
9215;DHT22;4642;51.364;6.788;2023-06-10T13:58:51;30.60;1.00
9215;DHT22;4642;51.364;6.788;2023-06-10T14:01:17;30.60;99.90
9215;DHT22;4642;51.364;6.788;2023-06-10T14:03:42;30.60;54.80
9215;DHT22;4642;51.364;6.788;2023-06-10T14:06:08;30.60;99.90
9215;DHT22;4642;51.364;6.788;2023-06-10T14:08:34;30.80;99.90
9215;DHT22;4642;51.364;6.788;2023-06-10T14:11:00;30.80;99.90
9215;DHT22;4642;51.364;6.788;2023-06-10T14:13:25;30.90;8.20
9215;DHT22;4642;51.364;6.788;2023-06-10T14:15:51;31.00;99.90
9215;DHT22;4642;51.364;6.788;2023-06-10T14:18:16;31.10;99.90
9215;DHT22;4642;51.364;6.788;2023-06-10T14:20:42;31.20;92.70
9215;DHT22;4642;51.364;6.788;2023-06-10T14:23:07;31.20;99.90
9215;DHT22;4642;51.364;6.788;2023-06-10T14:25:33;31.30;89.50
9215;DHT22;4642;51.364;6.788;2023-06-10T14:27:58;31.40;1.00
9215;DHT22;4642;51.364;6.788;2023-06-10T14:30:24;31.40;37.10
9215;DHT22;4642;51.364;6.788;2023-06-10T14:32:49;31.20;1.00
9215;DHT22;4642;51.364;6.788;2023-06-10T14:35:15;31.00;1.00
9215;DHT22;4642;51.364;6.788;2023-06-10T14:37:40;30.90;1.00
9215;DHT22;4642;51.364;6.788;2023-06-10T14:40:06;31.00;99.90
9215;DHT22;4642;51.364;6.788;2023-06-10T14:42:32;31.20;99.90
9215;DHT22;4642;51.364;6.788;2023-06-10T14:44:58;31.20;78.90
9215;DHT22;4642;51.364;6.788;2023-06-10T14:47:24;31.40;99.90
9215;DHT22;4642;51.364;6.788;2023-06-10T14:49:50;31.20;99.90
9215;DHT22;4642;51.364;6.788;2023-06-10T14:52:16;31.00;93.60
9215;DHT22;4642;51.364;6.788;2023-06-10T14:54:41;30.90;99.90
9215;DHT22;4642;51.364;6.788;2023-06-10T14:57:07;30.80;1.00
9215;DHT22;4642;51.364;6.788;2023-06-10T14:59:33;30.70;99.90
9215;DHT22;4642;51.364;6.788;2023-06-10T15:02:00;30.80;99.90
9215;DHT22;4642;51.364;6.788;2023-06-10T15:04:26;30.90;99.90
9215;DHT22;4642;51.364;6.788;2023-06-10T15:06:52;30.90;99.90
9215;DHT22;4642;51.364;6.788;2023-06-10T15:09:18;30.90;99.90
9215;DHT22;4642;51.364;6.788;2023-06-10T15:11:43;31.00;99.90
9215;DHT22;4642;51.364;6.788;2023-06-10T15:14:09;31.00;99.90
9215;DHT22;4642;51.364;6.788;2023-06-10T15:16:34;31.20;99.90
9215;DHT22;4642;51.364;6.788;2023-06-10T15:19:00;31.20;99.90
9215;DHT22;4642;51.364;6.788;2023-06-10T15:21:25;31.20;99.90
9215;DHT22;4642;51.364;6.788;2023-06-10T15:23:51;31.20;1.00
9215;DHT22;4642;51.364;6.788;2023-06-10T15:26:17;31.40;1.00
9215;DHT22;4642;51.364;6.788;2023-06-10T15:28:42;31.50;1.00
9215;DHT22;4642;51.364;6.788;2023-06-10T15:31:08;31.60;1.00
9215;DHT22;4642;51.364;6.788;2023-06-10T15:33:33;31.60;1.00
9215;DHT22;4642;51.364;6.788;2023-06-10T15:35:59;31.60;1.00
9215;DHT22;4642;51.364;6.788;2023-06-10T15:38:24;31.50;1.00
9215;DHT22;4642;51.364;6.788;2023-06-10T15:40:50;31.20;1.00
9215;DHT22;4642;51.364;6.788;2023-06-10T15:43:15;31.00;8.30
9215;DHT22;4642;51.364;6.788;2023-06-10T15:45:41;30.80;63.70
9215;DHT22;4642;51.364;6.788;2023-06-10T15:48:07;30.60;1.00
9215;DHT22;4642;51.364;6.788;2023-06-10T15:50:32;30.60;1.00
9215;DHT22;4642;51.364;6.788;2023-06-10T15:52:58;30.70;1.00
9215;DHT22;4642;51.364;6.788;2023-06-10T15:55:23;30.70;99.90
9215;DHT22;4642;51.364;6.788;2023-06-10T15:57:51;30.60;99.90
9215;DHT22;4642;51.364;6.788;2023-06-10T16:00:16;30.50;99.90
9215;DHT22;4642;51.364;6.788;2023-06-10T16:02:42;30.40;99.90
9215;DHT22;4642;51.364;6.788;2023-06-10T16:05:08;30.40;1.00
9215;DHT22;4642;51.364;6.788;2023-06-10T16:07:33;30.30;99.90
9215;DHT22;4642;51.364;6.788;2023-06-10T16:09:59;30.20;99.90
9215;DHT22;4642;51.364;6.788;2023-06-10T16:12:25;30.30;99.90
9215;DHT22;4642;51.364;6.788;2023-06-10T16:14:50;30.30;99.90
9215;DHT22;4642;51.364;6.788;2023-06-10T16:17:16;30.30;99.90